sensor_id;sensor_type;location;lat;lon;timestamp;temperature;humidity
41630;DHT22;27322;49.488;8.480;2023-07-20T00:01:11;23.20;74.20
41630;DHT22;27322;49.488;8.480;2023-07-20T00:03:36;23.20;73.70
41630;DHT22;27322;49.488;8.480;2023-07-20T00:06:02;23.20;74.00
41630;DHT22;27322;49.488;8.480;2023-07-20T00:08:29;23.20;73.80
41630;DHT22;27322;49.488;8.480;2023-07-20T00:10:55;23.10;73.20
41630;DHT22;27322;49.488;8.480;2023-07-20T00:13:21;23.10;73.10
41630;DHT22;27322;49.488;8.480;2023-07-20T00:15:47;23.10;74.90
41630;DHT22;27322;49.488;8.480;2023-07-20T00:18:13;23.10;74.70
41630;DHT22;27322;49.488;8.480;2023-07-20T00:20:39;23.00;74.20
41630;DHT22;27322;49.488;8.480;2023-07-20T00:23:05;23.00;75.40
41630;DHT22;27322;49.488;8.480;2023-07-20T00:25:30;22.90;74.30
41630;DHT22;27322;49.488;8.480;2023-07-20T00:27:56;23.00;74.40
41630;DHT22;27322;49.488;8.480;2023-07-20T00:30:22;23.00;74.90
41630;DHT22;27322;49.488;8.480;2023-07-20T00:32:47;23.00;74.70
41630;DHT22;27322;49.488;8.480;2023-07-20T00:35:13;23.00;75.20
41630;DHT22;27322;49.488;8.480;2023-07-20T00:37:39;23.00;75.70
41630;DHT22;27322;49.488;8.480;2023-07-20T00:40:05;23.00;74.60
41630;DHT22;27322;49.488;8.480;2023-07-20T00:42:33;23.00;75.10
41630;DHT22;27322;49.488;8.480;2023-07-20T00:44:58;23.00;75.70
41630;DHT22;27322;49.488;8.480;2023-07-20T00:47:24;23.00;75.00
41630;DHT22;27322;49.488;8.480;2023-07-20T00:49:51;22.90;74.60
41630;DHT22;27322;49.488;8.480;2023-07-20T00:52:19;22.90;74.70
41630;DHT22;27322;49.488;8.480;2023-07-20T00:54:46;22.90;75.10
41630;DHT22;27322;49.488;8.480;2023-07-20T00:57:14;22.80;75.00
41630;DHT22;27322;49.488;8.480;2023-07-20T00:59:40;22.90;75.10
41630;DHT22;27322;49.488;8.480;2023-07-20T01:02:06;22.90;75.90
41630;DHT22;27322;49.488;8.480;2023-07-20T01:04:32;22.80;75.90
41630;DHT22;27322;49.488;8.480;2023-07-20T01:07:01;22.80;75.20
41630;DHT22;27322;49.488;8.480;2023-07-20T01:09:42;22.80;75.40
41630;DHT22;27322;49.488;8.480;2023-07-20T01:12:30;22.80;74.70
41630;DHT22;27322;49.488;8.480;2023-07-20T01:14:58;22.70;75.20
41630;DHT22;27322;49.488;8.480;2023-07-20T01:17:24;22.70;76.30
41630;DHT22;27322;49.488;8.480;2023-07-20T01:19:49;22.70;75.90
41630;DHT22;27322;49.488;8.480;2023-07-20T01:33:46;22.70;75.60
41630;DHT22;27322;49.488;8.480;2023-07-20T01:36:13;22.70;77.00
41630;DHT22;27322;49.488;8.480;2023-07-20T01:38:40;22.60;75.60
41630;DHT22;27322;49.488;8.480;2023-07-20T01:41:07;22.50;75.90
41630;DHT22;27322;49.488;8.480;2023-07-20T01:43:34;22.50;76.20
41630;DHT22;27322;49.488;8.480;2023-07-20T01:45:59;22.50;76.20
41630;DHT22;27322;49.488;8.480;2023-07-20T01:48:25;22.40;76.50
41630;DHT22;27322;49.488;8.480;2023-07-20T01:50:50;22.40;76.40
41630;DHT22;27322;49.488;8.480;2023-07-20T01:53:16;22.40;76.90
41630;DHT22;27322;49.488;8.480;2023-07-20T01:55:41;22.30;77.60
41630;DHT22;27322;49.488;8.480;2023-07-20T01:58:07;22.30;77.10
41630;DHT22;27322;49.488;8.480;2023-07-20T02:00:33;22.30;77.10
41630;DHT22;27322;49.488;8.480;2023-07-20T02:02:58;22.20;76.40
41630;DHT22;27322;49.488;8.480;2023-07-20T02:05:24;22.20;77.50
41630;DHT22;27322;49.488;8.480;2023-07-20T02:07:50;22.20;76.60
41630;DHT22;27322;49.488;8.480;2023-07-20T02:10:15;22.10;77.60
41630;DHT22;27322;49.488;8.480;2023-07-20T02:12:41;22.10;76.80
41630;DHT22;27322;49.488;8.480;2023-07-20T02:15:07;22.00;77.20
41630;DHT22;27322;49.488;8.480;2023-07-20T02:17:33;21.90;77.30
41630;DHT22;27322;49.488;8.480;2023-07-20T02:19:59;21.90;77.30
41630;DHT22;27322;49.488;8.480;2023-07-20T02:22:25;21.80;77.50
41630;DHT22;27322;49.488;8.480;2023-07-20T02:24:50;21.80;78.30
41630;DHT22;27322;49.488;8.480;2023-07-20T02:27:16;21.80;78.40
41630;DHT22;27322;49.488;8.480;2023-07-20T02:29:42;21.80;78.10
41630;DHT22;27322;49.488;8.480;2023-07-20T02:32:08;21.70;77.90
41630;DHT22;27322;49.488;8.480;2023-07-20T02:34:37;21.70;78.20
41630;DHT22;27322;49.488;8.480;2023-07-20T02:37:03;21.70;78.50
41630;DHT22;27322;49.488;8.480;2023-07-20T02:39:28;21.70;79.00
41630;DHT22;27322;49.488;8.480;2023-07-20T02:41:54;21.70;79.00
41630;DHT22;27322;49.488;8.480;2023-07-20T02:44:20;21.60;79.00
41630;DHT22;27322;49.488;8.480;2023-07-20T02:46:46;21.60;79.10
41630;DHT22;27322;49.488;8.480;2023-07-20T02:49:11;21.50;79.30
41630;DHT22;27322;49.488;8.480;2023-07-20T02:51:37;21.50;80.70
41630;DHT22;27322;49.488;8.480;2023-07-20T02:54:03;21.50;79.60
41630;DHT22;27322;49.488;8.480;2023-07-20T02:56:29;21.50;79.40
41630;DHT22;27322;49.488;8.480;2023-07-20T02:58:54;21.40;79.60
41630;DHT22;27322;49.488;8.480;2023-07-20T03:01:20;21.40;79.40
41630;DHT22;27322;49.488;8.480;2023-07-20T03:03:46;21.40;79.70
41630;DHT22;27322;49.488;8.480;2023-07-20T03:06:15;21.30;79.80
41630;DHT22;27322;49.488;8.480;2023-07-20T03:08:44;21.30;80.20
41630;DHT22;27322;49.488;8.480;2023-07-20T03:11:11;21.30;80.50
41630;DHT22;27322;49.488;8.480;2023-07-20T03:13:36;21.20;81.00
41630;DHT22;27322;49.488;8.480;2023-07-20T03:16:02;21.20;80.80
41630;DHT22;27322;49.488;8.480;2023-07-20T03:18:27;21.20;80.90
41630;DHT22;27322;49.488;8.480;2023-07-20T03:20:53;21.10;80.80
41630;DHT22;27322;49.488;8.480;2023-07-20T03:23:18;21.10;81.20
41630;DHT22;27322;49.488;8.480;2023-07-20T03:25:44;21.00;81.50
41630;DHT22;27322;49.488;8.480;2023-07-20T03:28:09;21.00;81.90
41630;DHT22;27322;49.488;8.480;2023-07-20T03:30:35;21.00;82.20
41630;DHT22;27322;49.488;8.480;2023-07-20T03:33:01;21.00;82.50
41630;DHT22;27322;49.488;8.480;2023-07-20T03:35:26;20.90;82.30
41630;DHT22;27322;49.488;8.480;2023-07-20T03:37:52;20.90;82.50
41630;DHT22;27322;49.488;8.480;2023-07-20T03:40:17;20.90;82.80
41630;DHT22;27322;49.488;8.480;2023-07-20T03:42:43;20.90;83.10
41630;DHT22;27322;49.488;8.480;2023-07-20T03:45:09;20.80;83.50
41630;DHT22;27322;49.488;8.480;2023-07-20T03:47:34;20.80;83.70
41630;DHT22;27322;49.488;8.480;2023-07-20T03:50:00;20.80;84.00
41630;DHT22;27322;49.488;8.480;2023-07-20T03:52:25;20.90;83.80
41630;DHT22;27322;49.488;8.480;2023-07-20T03:54:51;20.90;83.70
41630;DHT22;27322;49.488;8.480;2023-07-20T03:57:17;20.80;83.80
41630;DHT22;27322;49.488;8.480;2023-07-20T03:59:45;20.80;83.60
41630;DHT22;27322;49.488;8.480;2023-07-20T04:02:11;20.70;83.70
41630;DHT22;27322;49.488;8.480;2023-07-20T04:04:37;20.70;83.80
41630;DHT22;27322;49.488;8.480;2023-07-20T04:07:03;20.70;83.90
41630;DHT22;27322;49.488;8.480;2023-07-20T04:09:29;20.70;84.10
41630;DHT22;27322;49.488;8.480;2023-07-20T04:11:55;20.70;84.10
41630;DHT22;27322;49.488;8.480;2023-07-20T04:14:21;20.80;83.90
41630;DHT22;27322;49.488;8.480;2023-07-20T04:16:47;20.80;83.60
41630;DHT22;27322;49.488;8.480;2023-07-20T04:19:12;20.90;83.70
41630;DHT22;27322;49.488;8.480;2023-07-20T04:21:41;21.00;83.30
41630;DHT22;27322;49.488;8.480;2023-07-20T04:24:07;21.00;83.30
41630;DHT22;27322;49.488;8.480;2023-07-20T04:26:32;21.00;83.00
41630;DHT22;27322;49.488;8.480;2023-07-20T04:28:58;21.00;82.80
41630;DHT22;27322;49.488;8.480;2023-07-20T04:31:24;21.00;82.90
41630;DHT22;27322;49.488;8.480;2023-07-20T04:33:50;21.00;83.90
41630;DHT22;27322;49.488;8.480;2023-07-20T04:36:16;20.90;83.00
41630;DHT22;27322;49.488;8.480;2023-07-20T04:38:47;20.90;82.90
41630;DHT22;27322;49.488;8.480;2023-07-20T04:41:13;20.90;83.00
41630;DHT22;27322;49.488;8.480;2023-07-20T04:43:42;20.90;83.20
41630;DHT22;27322;49.488;8.480;2023-07-20T04:46:09;20.90;83.60
41630;DHT22;27322;49.488;8.480;2023-07-20T04:48:34;20.80;83.80
41630;DHT22;27322;49.488;8.480;2023-07-20T04:51:00;20.80;84.00
41630;DHT22;27322;49.488;8.480;2023-07-20T04:53:26;20.70;84.00
41630;DHT22;27322;49.488;8.480;2023-07-20T04:55:51;20.70;84.10
41630;DHT22;27322;49.488;8.480;2023-07-20T04:58:18;20.70;84.30
41630;DHT22;27322;49.488;8.480;2023-07-20T05:00:44;20.70;84.20
41630;DHT22;27322;49.488;8.480;2023-07-20T05:03:09;20.60;84.50
41630;DHT22;27322;49.488;8.480;2023-07-20T05:05:35;20.60;84.80
41630;DHT22;27322;49.488;8.480;2023-07-20T05:08:00;20.60;85.40
41630;DHT22;27322;49.488;8.480;2023-07-20T05:10:26;20.70;85.80
41630;DHT22;27322;49.488;8.480;2023-07-20T05:12:51;20.90;85.90
41630;DHT22;27322;49.488;8.480;2023-07-20T05:15:17;21.00;85.50
41630;DHT22;27322;49.488;8.480;2023-07-20T05:17:43;21.10;85.10
41630;DHT22;27322;49.488;8.480;2023-07-20T05:20:08;21.10;84.50
41630;DHT22;27322;49.488;8.480;2023-07-20T05:22:40;21.00;85.50
41630;DHT22;27322;49.488;8.480;2023-07-20T05:25:10;21.00;85.60
41630;DHT22;27322;49.488;8.480;2023-07-20T05:27:40;21.00;86.00
41630;DHT22;27322;49.488;8.480;2023-07-20T05:30:06;21.10;86.00
41630;DHT22;27322;49.488;8.480;2023-07-20T05:32:33;21.20;85.90
41630;DHT22;27322;49.488;8.480;2023-07-20T05:34:58;21.40;85.90
41630;DHT22;27322;49.488;8.480;2023-07-20T05:37:24;21.50;85.60
41630;DHT22;27322;49.488;8.480;2023-07-20T05:39:50;21.60;85.20
41630;DHT22;27322;49.488;8.480;2023-07-20T05:42:16;21.70;85.10
41630;DHT22;27322;49.488;8.480;2023-07-20T05:44:41;21.70;84.60
41630;DHT22;27322;49.488;8.480;2023-07-20T05:47:07;21.50;84.40
41630;DHT22;27322;49.488;8.480;2023-07-20T05:49:33;21.60;85.40
41630;DHT22;27322;49.488;8.480;2023-07-20T05:51:59;21.60;85.90
41630;DHT22;27322;49.488;8.480;2023-07-20T05:54:26;21.70;85.40
41630;DHT22;27322;49.488;8.480;2023-07-20T05:56:52;21.60;84.80
41630;DHT22;27322;49.488;8.480;2023-07-20T05:59:18;21.60;85.70
41630;DHT22;27322;49.488;8.480;2023-07-20T06:01:45;21.60;85.70
41630;DHT22;27322;49.488;8.480;2023-07-20T06:04:11;21.50;85.40
41630;DHT22;27322;49.488;8.480;2023-07-20T06:06:37;21.30;85.30
41630;DHT22;27322;49.488;8.480;2023-07-20T06:09:02;21.30;86.50
41630;DHT22;27322;49.488;8.480;2023-07-20T06:11:35;21.30;86.20
41630;DHT22;27322;49.488;8.480;2023-07-20T06:14:01;21.30;86.00
41630;DHT22;27322;49.488;8.480;2023-07-20T06:16:26;21.30;86.30
41630;DHT22;27322;49.488;8.480;2023-07-20T06:18:52;21.30;85.70
41630;DHT22;27322;49.488;8.480;2023-07-20T06:21:17;21.10;85.80
41630;DHT22;27322;49.488;8.480;2023-07-20T06:23:43;21.10;86.10
41630;DHT22;27322;49.488;8.480;2023-07-20T06:26:08;21.00;86.80
41630;DHT22;27322;49.488;8.480;2023-07-20T06:28:34;21.00;87.10
41630;DHT22;27322;49.488;8.480;2023-07-20T06:31:01;21.00;87.50
41630;DHT22;27322;49.488;8.480;2023-07-20T06:33:26;21.00;88.30
41630;DHT22;27322;49.488;8.480;2023-07-20T06:35:52;21.10;87.70
41630;DHT22;27322;49.488;8.480;2023-07-20T06:38:18;21.10;87.60
41630;DHT22;27322;49.488;8.480;2023-07-20T06:40:46;21.10;87.40
41630;DHT22;27322;49.488;8.480;2023-07-20T06:43:12;21.10;87.60
41630;DHT22;27322;49.488;8.480;2023-07-20T06:45:37;21.10;87.80
41630;DHT22;27322;49.488;8.480;2023-07-20T06:48:03;21.10;86.80
41630;DHT22;27322;49.488;8.480;2023-07-20T06:50:29;21.10;87.40
41630;DHT22;27322;49.488;8.480;2023-07-20T06:52:55;21.10;86.80
41630;DHT22;27322;49.488;8.480;2023-07-20T06:55:20;21.10;87.00
41630;DHT22;27322;49.488;8.480;2023-07-20T06:57:46;21.00;86.80
41630;DHT22;27322;49.488;8.480;2023-07-20T07:00:12;21.00;87.50
41630;DHT22;27322;49.488;8.480;2023-07-20T07:02:38;21.20;87.80
41630;DHT22;27322;49.488;8.480;2023-07-20T07:05:04;21.40;87.70
41630;DHT22;27322;49.488;8.480;2023-07-20T07:07:30;21.40;86.90
41630;DHT22;27322;49.488;8.480;2023-07-20T07:09:56;21.60;86.20
41630;DHT22;27322;49.488;8.480;2023-07-20T07:12:22;21.70;86.40
41630;DHT22;27322;49.488;8.480;2023-07-20T07:14:47;21.70;84.70
41630;DHT22;27322;49.488;8.480;2023-07-20T07:17:13;21.70;84.30
41630;DHT22;27322;49.488;8.480;2023-07-20T07:19:38;21.70;84.50
41630;DHT22;27322;49.488;8.480;2023-07-20T07:22:06;21.70;84.50
41630;DHT22;27322;49.488;8.480;2023-07-20T07:24:31;21.70;85.00
41630;DHT22;27322;49.488;8.480;2023-07-20T07:27:02;21.70;84.60
41630;DHT22;27322;49.488;8.480;2023-07-20T07:29:29;21.70;85.00
41630;DHT22;27322;49.488;8.480;2023-07-20T07:31:54;21.70;85.30
41630;DHT22;27322;49.488;8.480;2023-07-20T07:34:20;21.80;84.40
41630;DHT22;27322;49.488;8.480;2023-07-20T07:36:46;21.80;86.20
41630;DHT22;27322;49.488;8.480;2023-07-20T07:39:12;22.10;85.10
41630;DHT22;27322;49.488;8.480;2023-07-20T07:41:38;22.30;84.90
41630;DHT22;27322;49.488;8.480;2023-07-20T07:44:04;22.50;83.50
41630;DHT22;27322;49.488;8.480;2023-07-20T07:46:30;22.60;82.00
41630;DHT22;27322;49.488;8.480;2023-07-20T07:48:55;22.70;81.40
41630;DHT22;27322;49.488;8.480;2023-07-20T07:51:21;22.70;82.00
41630;DHT22;27322;49.488;8.480;2023-07-20T07:53:47;22.70;81.90
41630;DHT22;27322;49.488;8.480;2023-07-20T07:56:14;22.70;82.10
41630;DHT22;27322;49.488;8.480;2023-07-20T07:58:40;22.60;81.50
41630;DHT22;27322;49.488;8.480;2023-07-20T08:01:06;22.60;82.30
41630;DHT22;27322;49.488;8.480;2023-07-20T08:03:31;22.60;81.90
41630;DHT22;27322;49.488;8.480;2023-07-20T08:05:57;22.80;82.10
41630;DHT22;27322;49.488;8.480;2023-07-20T08:08:24;22.80;81.10
41630;DHT22;27322;49.488;8.480;2023-07-20T08:10:52;22.90;82.00
41630;DHT22;27322;49.488;8.480;2023-07-20T08:13:18;22.90;81.50
41630;DHT22;27322;49.488;8.480;2023-07-20T08:15:49;22.90;80.90
41630;DHT22;27322;49.488;8.480;2023-07-20T08:18:17;22.90;80.50
41630;DHT22;27322;49.488;8.480;2023-07-20T08:20:46;22.80;79.20
41630;DHT22;27322;49.488;8.480;2023-07-20T08:23:12;22.80;80.10
41630;DHT22;27322;49.488;8.480;2023-07-20T08:25:41;22.90;79.50
41630;DHT22;27322;49.488;8.480;2023-07-20T08:28:16;23.00;79.70
41630;DHT22;27322;49.488;8.480;2023-07-20T08:30:45;23.10;80.20
41630;DHT22;27322;49.488;8.480;2023-07-20T08:33:13;23.20;79.90
41630;DHT22;27322;49.488;8.480;2023-07-20T08:35:39;23.20;79.70
41630;DHT22;27322;49.488;8.480;2023-07-20T08:38:05;23.20;79.50
41630;DHT22;27322;49.488;8.480;2023-07-20T08:40:31;23.20;79.80
41630;DHT22;27322;49.488;8.480;2023-07-20T08:42:58;23.10;78.90
41630;DHT22;27322;49.488;8.480;2023-07-20T08:45:27;23.10;79.60
41630;DHT22;27322;49.488;8.480;2023-07-20T08:47:56;23.00;79.60
41630;DHT22;27322;49.488;8.480;2023-07-20T08:50:22;23.00;79.50
41630;DHT22;27322;49.488;8.480;2023-07-20T08:52:48;23.00;79.80
41630;DHT22;27322;49.488;8.480;2023-07-20T08:55:15;23.00;79.90
41630;DHT22;27322;49.488;8.480;2023-07-20T08:57:42;23.20;80.00
41630;DHT22;27322;49.488;8.480;2023-07-20T09:00:11;23.30;78.20
41630;DHT22;27322;49.488;8.480;2023-07-20T09:02:39;23.40;78.10
41630;DHT22;27322;49.488;8.480;2023-07-20T09:05:08;23.60;79.00
41630;DHT22;27322;49.488;8.480;2023-07-20T09:07:35;23.70;76.80
41630;DHT22;27322;49.488;8.480;2023-07-20T09:10:01;23.70;77.80
41630;DHT22;27322;49.488;8.480;2023-07-20T09:12:32;23.90;76.50
41630;DHT22;27322;49.488;8.480;2023-07-20T09:15:00;23.90;75.80
41630;DHT22;27322;49.488;8.480;2023-07-20T09:17:26;23.90;74.90
41630;DHT22;27322;49.488;8.480;2023-07-20T09:19:52;23.80;74.50
41630;DHT22;27322;49.488;8.480;2023-07-20T09:22:18;23.80;75.30
41630;DHT22;27322;49.488;8.480;2023-07-20T09:24:44;23.70;76.00
41630;DHT22;27322;49.488;8.480;2023-07-20T09:27:09;23.70;76.20
41630;DHT22;27322;49.488;8.480;2023-07-20T09:29:50;23.60;76.30
41630;DHT22;27322;49.488;8.480;2023-07-20T09:32:21;23.60;76.80
41630;DHT22;27322;49.488;8.480;2023-07-20T09:34:47;23.60;77.50
41630;DHT22;27322;49.488;8.480;2023-07-20T09:37:20;23.60;76.80
41630;DHT22;27322;49.488;8.480;2023-07-20T09:39:46;23.70;76.40
41630;DHT22;27322;49.488;8.480;2023-07-20T09:42:12;23.80;76.40
41630;DHT22;27322;49.488;8.480;2023-07-20T09:44:39;23.80;76.50
41630;DHT22;27322;49.488;8.480;2023-07-20T09:47:06;23.90;77.40
41630;DHT22;27322;49.488;8.480;2023-07-20T09:49:32;24.00;76.50
41630;DHT22;27322;49.488;8.480;2023-07-20T09:51:57;24.00;74.70
41630;DHT22;27322;49.488;8.480;2023-07-20T09:54:24;24.10;75.40
41630;DHT22;27322;49.488;8.480;2023-07-20T09:56:52;24.20;74.40
41630;DHT22;27322;49.488;8.480;2023-07-20T09:59:18;24.20;74.70
41630;DHT22;27322;49.488;8.480;2023-07-20T10:01:45;24.30;73.20
41630;DHT22;27322;49.488;8.480;2023-07-20T10:04:11;24.30;72.20
41630;DHT22;27322;49.488;8.480;2023-07-20T10:06:42;24.30;73.20
41630;DHT22;27322;49.488;8.480;2023-07-20T10:09:10;24.30;71.90
41630;DHT22;27322;49.488;8.480;2023-07-20T10:11:46;24.20;72.80
41630;DHT22;27322;49.488;8.480;2023-07-20T10:14:18;24.20;74.20
41630;DHT22;27322;49.488;8.480;2023-07-20T10:16:50;24.00;73.10
41630;DHT22;27322;49.488;8.480;2023-07-20T10:19:26;23.90;74.40
41630;DHT22;27322;49.488;8.480;2023-07-20T10:22:03;23.90;74.30
41630;DHT22;27322;49.488;8.480;2023-07-20T10:24:29;23.80;74.30
41630;DHT22;27322;49.488;8.480;2023-07-20T10:26:58;23.80;74.80
41630;DHT22;27322;49.488;8.480;2023-07-20T10:29:24;23.90;75.50
41630;DHT22;27322;49.488;8.480;2023-07-20T10:31:50;23.90;75.40
41630;DHT22;27322;49.488;8.480;2023-07-20T10:34:16;23.80;74.30
41630;DHT22;27322;49.488;8.480;2023-07-20T10:36:46;23.90;75.70
41630;DHT22;27322;49.488;8.480;2023-07-20T10:39:27;24.10;74.50
41630;DHT22;27322;49.488;8.480;2023-07-20T10:42:09;24.30;73.60
41630;DHT22;27322;49.488;8.480;2023-07-20T10:44:39;24.40;74.60
41630;DHT22;27322;49.488;8.480;2023-07-20T10:47:12;24.40;73.40
41630;DHT22;27322;49.488;8.480;2023-07-20T10:50:01;24.30;73.20
41630;DHT22;27322;49.488;8.480;2023-07-20T10:52:39;24.40;72.00
41630;DHT22;27322;49.488;8.480;2023-07-20T10:55:18;24.30;72.10
41630;DHT22;27322;49.488;8.480;2023-07-20T10:58:13;24.30;73.00
41630;DHT22;27322;49.488;8.480;2023-07-20T11:01:02;24.40;73.90
41630;DHT22;27322;49.488;8.480;2023-07-20T11:03:33;24.50;72.80
41630;DHT22;27322;49.488;8.480;2023-07-20T11:05:59;24.50;71.90
41630;DHT22;27322;49.488;8.480;2023-07-20T11:08:41;24.50;71.00
41630;DHT22;27322;49.488;8.480;2023-07-20T11:11:29;24.40;71.70
41630;DHT22;27322;49.488;8.480;2023-07-20T11:14:03;24.40;70.70
41630;DHT22;27322;49.488;8.480;2023-07-20T11:19:01;24.40;71.00
41630;DHT22;27322;49.488;8.480;2023-07-20T11:21:28;24.40;72.40
41630;DHT22;27322;49.488;8.480;2023-07-20T11:23:53;24.60;72.50
41630;DHT22;27322;49.488;8.480;2023-07-20T11:26:20;24.60;69.90
41630;DHT22;27322;49.488;8.480;2023-07-20T11:28:49;24.60;68.90
41630;DHT22;27322;49.488;8.480;2023-07-20T11:31:20;24.70;67.00
41630;DHT22;27322;49.488;8.480;2023-07-20T11:33:46;24.70;65.60
41630;DHT22;27322;49.488;8.480;2023-07-20T11:36:12;24.70;67.60
41630;DHT22;27322;49.488;8.480;2023-07-20T11:38:41;24.70;66.10
41630;DHT22;27322;49.488;8.480;2023-07-20T11:41:08;24.70;67.00
41630;DHT22;27322;49.488;8.480;2023-07-20T11:43:33;24.80;68.50
41630;DHT22;27322;49.488;8.480;2023-07-20T11:45:59;24.80;68.70
41630;DHT22;27322;49.488;8.480;2023-07-20T11:48:26;24.80;67.30
41630;DHT22;27322;49.488;8.480;2023-07-20T11:50:51;24.80;68.30
41630;DHT22;27322;49.488;8.480;2023-07-20T11:53:17;24.90;69.10
41630;DHT22;27322;49.488;8.480;2023-07-20T11:55:44;24.90;69.60
41630;DHT22;27322;49.488;8.480;2023-07-20T11:58:10;24.90;67.20
41630;DHT22;27322;49.488;8.480;2023-07-20T12:00:38;24.90;65.50
41630;DHT22;27322;49.488;8.480;2023-07-20T12:03:05;24.90;66.40
41630;DHT22;27322;49.488;8.480;2023-07-20T12:05:32;24.80;66.00
41630;DHT22;27322;49.488;8.480;2023-07-20T12:07:58;24.70;66.00
41630;DHT22;27322;49.488;8.480;2023-07-20T12:10:25;24.60;67.00
41630;DHT22;27322;49.488;8.480;2023-07-20T12:12:51;24.60;66.50
41630;DHT22;27322;49.488;8.480;2023-07-20T12:17:46;24.50;67.90
41630;DHT22;27322;49.488;8.480;2023-07-20T12:20:12;24.40;68.90
41630;DHT22;27322;49.488;8.480;2023-07-20T12:22:42;24.40;69.90
41630;DHT22;27322;49.488;8.480;2023-07-20T12:25:08;24.40;69.30
41630;DHT22;27322;49.488;8.480;2023-07-20T12:27:38;24.50;69.10
41630;DHT22;27322;49.488;8.480;2023-07-20T12:30:05;24.50;68.00
41630;DHT22;27322;49.488;8.480;2023-07-20T12:32:31;24.40;69.50
41630;DHT22;27322;49.488;8.480;2023-07-20T12:34:57;24.50;69.50
41630;DHT22;27322;49.488;8.480;2023-07-20T12:37:22;24.50;68.90
41630;DHT22;27322;49.488;8.480;2023-07-20T12:39:48;24.50;69.60
41630;DHT22;27322;49.488;8.480;2023-07-20T12:42:14;24.60;69.80
41630;DHT22;27322;49.488;8.480;2023-07-20T12:44:42;24.60;68.20
41630;DHT22;27322;49.488;8.480;2023-07-20T12:47:08;24.50;68.90
41630;DHT22;27322;49.488;8.480;2023-07-20T12:49:33;24.60;69.50
41630;DHT22;27322;49.488;8.480;2023-07-20T12:51:59;24.60;71.50
41630;DHT22;27322;49.488;8.480;2023-07-20T12:54:24;24.60;67.90
41630;DHT22;27322;49.488;8.480;2023-07-20T12:56:50;24.60;70.30
41630;DHT22;27322;49.488;8.480;2023-07-20T12:59:16;24.60;69.30
41630;DHT22;27322;49.488;8.480;2023-07-20T13:01:41;24.60;69.80
41630;DHT22;27322;49.488;8.480;2023-07-20T13:04:08;24.70;70.70
41630;DHT22;27322;49.488;8.480;2023-07-20T13:06:34;24.70;70.60
41630;DHT22;27322;49.488;8.480;2023-07-20T13:09:00;24.70;68.90
41630;DHT22;27322;49.488;8.480;2023-07-20T13:11:26;24.60;67.60
41630;DHT22;27322;49.488;8.480;2023-07-20T13:13:51;24.50;68.90
41630;DHT22;27322;49.488;8.480;2023-07-20T13:16:17;24.50;69.40
41630;DHT22;27322;49.488;8.480;2023-07-20T13:18:43;24.60;69.40
41630;DHT22;27322;49.488;8.480;2023-07-20T13:21:08;24.60;70.00
41630;DHT22;27322;49.488;8.480;2023-07-20T13:23:39;24.50;68.50
41630;DHT22;27322;49.488;8.480;2023-07-20T13:26:05;24.50;70.70
41630;DHT22;27322;49.488;8.480;2023-07-20T13:28:30;24.50;69.00
41630;DHT22;27322;49.488;8.480;2023-07-20T13:30:56;24.50;69.00
41630;DHT22;27322;49.488;8.480;2023-07-20T13:33:22;24.50;69.10
41630;DHT22;27322;49.488;8.480;2023-07-20T13:35:47;24.50;71.20
41630;DHT22;27322;49.488;8.480;2023-07-20T13:38:13;24.50;69.20
41630;DHT22;27322;49.488;8.480;2023-07-20T13:40:39;24.60;67.60
41630;DHT22;27322;49.488;8.480;2023-07-20T13:43:04;24.50;67.50
41630;DHT22;27322;49.488;8.480;2023-07-20T13:45:30;24.50;69.60
41630;DHT22;27322;49.488;8.480;2023-07-20T13:47:55;24.60;69.60
41630;DHT22;27322;49.488;8.480;2023-07-20T13:50:21;24.70;70.00
41630;DHT22;27322;49.488;8.480;2023-07-20T13:52:46;24.70;70.30
41630;DHT22;27322;49.488;8.480;2023-07-20T13:55:12;24.80;69.00
41630;DHT22;27322;49.488;8.480;2023-07-20T13:57:38;24.80;67.50
41630;DHT22;27322;49.488;8.480;2023-07-20T14:00:04;24.80;67.10
41630;DHT22;27322;49.488;8.480;2023-07-20T14:02:30;24.90;66.40
41630;DHT22;27322;49.488;8.480;2023-07-20T14:04:56;25.00;68.90
41630;DHT22;27322;49.488;8.480;2023-07-20T14:07:22;25.20;67.40
41630;DHT22;27322;49.488;8.480;2023-07-20T14:09:47;25.30;66.10
41630;DHT22;27322;49.488;8.480;2023-07-20T14:12:13;25.40;66.10
41630;DHT22;27322;49.488;8.480;2023-07-20T14:14:40;25.30;65.30
41630;DHT22;27322;49.488;8.480;2023-07-20T14:17:06;25.30;68.40
41630;DHT22;27322;49.488;8.480;2023-07-20T14:19:32;25.30;69.20
41630;DHT22;27322;49.488;8.480;2023-07-20T14:21:58;25.40;68.20
41630;DHT22;27322;49.488;8.480;2023-07-20T14:24:25;25.30;65.80
41630;DHT22;27322;49.488;8.480;2023-07-20T14:26:51;25.30;64.00
41630;DHT22;27322;49.488;8.480;2023-07-20T14:29:17;25.20;64.90
41630;DHT22;27322;49.488;8.480;2023-07-20T14:31:44;25.10;64.60
41630;DHT22;27322;49.488;8.480;2023-07-20T14:34:09;25.00;65.00
41630;DHT22;27322;49.488;8.480;2023-07-20T14:36:35;25.00;65.40
41630;DHT22;27322;49.488;8.480;2023-07-20T14:39:01;25.10;66.80
41630;DHT22;27322;49.488;8.480;2023-07-20T14:41:27;25.10;66.70
41630;DHT22;27322;49.488;8.480;2023-07-20T14:43:52;25.10;65.40
41630;DHT22;27322;49.488;8.480;2023-07-20T14:46:18;25.10;67.00
41630;DHT22;27322;49.488;8.480;2023-07-20T14:48:43;25.00;65.90
41630;DHT22;27322;49.488;8.480;2023-07-20T14:51:09;25.00;63.80
41630;DHT22;27322;49.488;8.480;2023-07-20T14:53:35;24.90;63.90
41630;DHT22;27322;49.488;8.480;2023-07-20T14:56:01;24.80;64.70
41630;DHT22;27322;49.488;8.480;2023-07-20T14:58:27;24.80;65.50
41630;DHT22;27322;49.488;8.480;2023-07-20T15:00:52;24.80;68.20
41630;DHT22;27322;49.488;8.480;2023-07-20T15:03:18;24.80;67.50
41630;DHT22;27322;49.488;8.480;2023-07-20T15:05:44;24.90;65.90
41630;DHT22;27322;49.488;8.480;2023-07-20T15:08:09;24.80;65.20
41630;DHT22;27322;49.488;8.480;2023-07-20T15:10:35;24.80;65.30
41630;DHT22;27322;49.488;8.480;2023-07-20T15:13:00;24.80;63.60
41630;DHT22;27322;49.488;8.480;2023-07-20T15:15:26;24.80;62.70
41630;DHT22;27322;49.488;8.480;2023-07-20T15:17:52;24.90;66.50
41630;DHT22;27322;49.488;8.480;2023-07-20T15:20:18;24.90;64.20
41630;DHT22;27322;49.488;8.480;2023-07-20T15:22:43;24.90;64.30
41630;DHT22;27322;49.488;8.480;2023-07-20T15:25:09;24.90;66.80
41630;DHT22;27322;49.488;8.480;2023-07-20T15:27:39;25.00;65.00
41630;DHT22;27322;49.488;8.480;2023-07-20T15:30:05;25.00;63.70
41630;DHT22;27322;49.488;8.480;2023-07-20T15:32:31;24.90;63.00
41630;DHT22;27322;49.488;8.480;2023-07-20T15:34:56;25.00;64.70
41630;DHT22;27322;49.488;8.480;2023-07-20T15:37:23;25.00;66.20
41630;DHT22;27322;49.488;8.480;2023-07-20T15:39:49;25.00;65.10
41630;DHT22;27322;49.488;8.480;2023-07-20T15:42:15;25.00;64.80
41630;DHT22;27322;49.488;8.480;2023-07-20T15:44:40;25.00;65.50